Time;durP1;ratioP1;P1;durP2;ratioP2;P2;SDS_P1;SDS_P2;PMS_P1;PMS_P2;Temp;Humidity;BMP_temperature;BMP_pressure;BME280_temperature;BME280_humidity;BME280_pressure;Samples;Min_cycle;Max_cycle;Signal;HPM_P1;HPM_P2
2023/10/30 00:00:40;;;;;;;6.10;1.60;;;;;;;;;;5039872;28;20310;-84
2023/10/30 00:03:06;;;;;;;5.75;1.65;;;;;;;;;;5055001;28;20268;-83
2023/10/30 00:05:32;;;;;;;5.50;1.40;;;;;;;;;;5056244;28;20232;-84
2023/10/30 00:07:58;;;;;;;10.70;2.17;;;;;;;;;;5055961;28;20189;-84
2023/10/30 00:10:24;;;;;;;11.95;2.60;;;;;;;;;;5038475;28;20416;-84
2023/10/30 00:12:50;;;;;;;6.65;1.60;;;;;;;;;;5055920;28;20170;-84
2023/10/30 00:15:16;;;;;;;8.73;2.13;;;;;;;;;;5055118;28;20666;-84
2023/10/30 00:17:42;;;;;;;7.57;2.25;;;;;;;;;;5038445;28;20413;-84
2023/10/30 00:20:08;;;;;;;6.60;2.10;;;;;;;;;;5054933;28;20605;-84
2023/10/30 00:22:34;;;;;;;10.48;2.70;;;;;;;;;;5055496;28;20525;-85
2023/10/30 00:25:01;;;;;;;8.63;1.75;;;;;;;;;;5054408;28;20201;-85
2023/10/30 00:27:27;;;;;;;6.78;1.60;;;;;;;;;;5025446;28;20194;-85
2023/10/30 00:29:53;;;;;;;7.77;1.83;;;;;;;;;;5034413;28;20658;-84
2023/10/30 00:32:19;;;;;;;10.03;2.00;;;;;;;;;;5034371;28;20445;-85
2023/10/30 00:34:45;;;;;;;7.07;2.03;;;;;;;;;;5034534;28;20412;-85
2023/10/30 00:37:12;;;;;;;14.10;2.40;;;;;;;;;;5034316;28;20401;-85
2023/10/30 00:39:38;;;;;;;5.93;1.92;;;;;;;;;;5034605;28;20813;-84
2023/10/30 00:42:04;;;;;;;7.53;1.85;;;;;;;;;;5034168;28;20213;-85
2023/10/30 00:44:30;;;;;;;7.13;1.75;;;;;;;;;;5035377;28;20214;-84
2023/10/30 00:46:56;;;;;;;14.20;2.05;;;;;;;;;;5037473;28;20202;-85
2023/10/30 00:49:22;;;;;;;12.25;3.08;;;;;;;;;;5055352;28;20170;-85
2023/10/30 00:51:48;;;;;;;7.47;1.58;;;;;;;;;;5053506;28;20187;-84
2023/10/30 00:54:14;;;;;;;6.70;2.17;;;;;;;;;;5037073;28;20181;-84
2023/10/30 00:56:40;;;;;;;12.60;2.70;;;;;;;;;;5055114;28;20914;-84
2023/10/30 00:59:06;;;;;;;13.48;2.20;;;;;;;;;;5053943;28;20415;-85
2023/10/30 01:01:33;;;;;;;8.10;1.80;;;;;;;;;;5055231;28;20225;-84
2023/10/30 01:03:59;;;;;;;7.70;1.85;;;;;;;;;;5055089;28;20166;-85
2023/10/30 01:06:25;;;;;;;6.70;1.60;;;;;;;;;;5036965;28;20323;-85
2023/10/30 01:08:52;;;;;;;6.55;2.35;;;;;;;;;;5053181;28;20530;-85
2023/10/30 01:11:18;;;;;;;8.37;2.13;;;;;;;;;;5053577;28;20618;-85
2023/10/30 01:13:43;;;;;;;5.03;1.70;;;;;;;;;;5054761;28;20408;-85
2023/10/30 01:16:09;;;;;;;7.07;2.13;;;;;;;;;;5054205;28;20412;-85
2023/10/30 01:18:37;;;;;;;6.33;1.47;;;;;;;;;;5036955;28;20404;-85
2023/10/30 01:21:08;;;;;;;7.38;1.80;;;;;;;;;;5054307;28;20458;-85
2023/10/30 01:23:34;;;;;;;13.02;2.50;;;;;;;;;;5046521;28;20277;-85
2023/10/30 01:26:00;;;;;;;6.17;2.17;;;;;;;;;;5016795;28;20309;-84
2023/10/30 01:28:25;;;;;;;8.40;2.40;;;;;;;;;;5017535;28;20455;-85
2023/10/30 01:30:51;;;;;;;7.20;1.50;;;;;;;;;;5033180;28;20489;-85
2023/10/30 01:33:17;;;;;;;5.43;1.93;;;;;;;;;;5016988;28;20781;-85
2023/10/30 01:35:43;;;;;;;14.97;3.00;;;;;;;;;;5033322;28;20447;-85
2023/10/30 01:38:09;;;;;;;5.90;1.95;;;;;;;;;;5016595;28;20452;-85
2023/10/30 01:40:35;;;;;;;7.73;2.03;;;;;;;;;;5033163;28;20213;-85
2023/10/30 01:43:08;;;;;;;8.05;2.38;;;;;;;;;;5033220;28;20401;-85
2023/10/30 01:45:34;;;;;;;6.40;1.83;;;;;;;;;;5033230;28;20260;-85
2023/10/30 01:48:00;;;;;;;13.27;3.60;;;;;;;;;;5033044;28;20205;-85
2023/10/30 01:50:26;;;;;;;8.27;2.07;;;;;;;;;;5033177;28;20885;-85
2023/10/30 01:52:52;;;;;;;10.40;1.60;;;;;;;;;;5033235;28;20420;-85
2023/10/30 01:55:18;;;;;;;7.90;1.77;;;;;;;;;;5033014;28;20417;-85
2023/10/30 01:57:44;;;;;;;11.40;2.00;;;;;;;;;;5016793;28;20208;-85
2023/10/30 02:00:11;;;;;;;8.00;1.77;;;;;;;;;;5034512;28;20295;-85
2023/10/30 02:02:37;;;;;;;8.48;1.58;;;;;;;;;;5054502;28;20204;-85
2023/10/30 02:05:05;;;;;;;10.00;2.63;;;;;;;;;;5052507;28;20201;-85
2023/10/30 02:07:31;;;;;;;6.90;1.77;;;;;;;;;;5054050;28;20161;-84
2023/10/30 02:09:57;;;;;;;6.95;2.50;;;;;;;;;;5052662;28;20196;-85
2023/10/30 02:12:23;;;;;;;5.47;1.58;;;;;;;;;;5052661;28;20270;-85
2023/10/30 02:14:49;;;;;;;4.97;1.43;;;;;;;;;;5036387;28;20189;-85
2023/10/30 02:17:15;;;;;;;6.73;1.60;;;;;;;;;;5053748;28;20426;-85
2023/10/30 02:19:41;;;;;;;6.77;1.63;;;;;;;;;;5052809;28;20416;-85
2023/10/30 02:22:07;;;;;;;8.82;1.65;;;;;;;;;;5035631;28;20428;-85
2023/10/30 02:24:33;;;;;;;3.67;1.50;;;;;;;;;;5052791;28;20217;-85
2023/10/30 02:26:59;;;;;;;9.07;1.93;;;;;;;;;;5052511;28;20417;-85
2023/10/30 02:29:25;;;;;;;5.27;1.30;;;;;;;;;;5052640;28;20904;-85
2023/10/30 02:31:51;;;;;;;5.90;1.60;;;;;;;;;;5052757;28;20776;-85
2023/10/30 02:34:17;;;;;;;5.70;1.70;;;;;;;;;;5053442;28;20436;-84
2023/10/30 02:36:43;;;;;;;10.07;1.70;;;;;;;;;;5052619;28;20182;-85
2023/10/30 02:39:09;;;;;;;7.83;1.80;;;;;;;;;;5053632;28;20184;-84
2023/10/30 02:41:35;;;;;;;10.30;1.60;;;;;;;;;;5052888;28;20880;-84
2023/10/30 02:44:01;;;;;;;6.80;1.83;;;;;;;;;;5049155;28;20405;-84
2023/10/30 02:46:27;;;;;;;4.57;1.30;;;;;;;;;;5037502;28;20206;-85
2023/10/30 02:48:54;;;;;;;10.30;1.58;;;;;;;;;;5036021;28;20182;-84
2023/10/30 02:51:20;;;;;;;9.52;1.92;;;;;;;;;;5035817;28;20179;-85
2023/10/30 02:53:46;;;;;;;6.13;2.20;;;;;;;;;;5035829;28;20182;-84
2023/10/30 02:56:12;;;;;;;10.10;2.00;;;;;;;;;;5036992;28;20812;-85
2023/10/30 02:58:38;;;;;;;9.55;2.10;;;;;;;;;;5037344;28;20409;-85
2023/10/30 03:01:04;;;;;;;9.87;2.50;;;;;;;;;;5035530;28;20280;-85
2023/10/30 03:03:30;;;;;;;4.57;1.20;;;;;;;;;;5019511;28;20428;-85
2023/10/30 03:05:56;;;;;;;4.53;1.70;;;;;;;;;;5035986;28;20206;-85
2023/10/30 03:08:25;;;;;;;6.90;1.73;;;;;;;;;;5035728;28;20459;-85
2023/10/30 03:10:51;;;;;;;8.93;1.80;;;;;;;;;;5037139;28;20209;-85
2023/10/30 03:13:16;;;;;;;6.00;1.70;;;;;;;;;;5019142;28;20191;-84
2023/10/30 03:15:46;;;;;;;9.33;1.80;;;;;;;;;;5036120;28;20429;-85
2023/10/30 03:18:12;;;;;;;5.40;1.98;;;;;;;;;;5019762;28;20420;-85
2023/10/30 03:20:38;;;;;;;14.25;2.15;;;;;;;;;;5036771;28;20182;-84
2023/10/30 03:23:04;;;;;;;4.10;1.53;;;;;;;;;;5036460;28;20194;-84
2023/10/30 03:25:30;;;;;;;8.80;1.95;;;;;;;;;;5049699;28;20464;-85
2023/10/30 03:27:56;;;;;;;9.90;2.30;;;;;;;;;;5036479;28;20229;-85
2023/10/30 03:30:22;;;;;;;6.23;1.43;;;;;;;;;;5018724;28;20421;-85
2023/10/30 03:32:48;;;;;;;5.20;1.75;;;;;;;;;;5018907;28;20409;-85
2023/10/30 03:35:14;;;;;;;7.17;1.43;;;;;;;;;;5036627;28;20171;-85
2023/10/30 03:37:40;;;;;;;9.00;1.50;;;;;;;;;;5035528;28;20420;-84
2023/10/30 03:40:06;;;;;;;5.75;1.50;;;;;;;;;;5035494;28;20397;-84
2023/10/30 03:42:32;;;;;;;3.83;1.42;;;;;;;;;;5036706;28;20202;-85
2023/10/30 03:44:58;;;;;;;6.90;2.00;;;;;;;;;;5034846;28;20210;-85
2023/10/30 03:47:24;;;;;;;6.65;1.50;;;;;;;;;;5036328;28;20405;-85
2023/10/30 03:49:50;;;;;;;8.27;2.03;;;;;;;;;;5035288;28;20643;-84
2023/10/30 03:52:16;;;;;;;7.07;1.50;;;;;;;;;;5036346;28;20425;-84
2023/10/30 03:54:42;;;;;;;5.70;1.50;;;;;;;;;;5035347;28;20425;-85
2023/10/30 03:57:08;;;;;;;11.83;2.30;;;;;;;;;;5036259;28;20433;-85
2023/10/30 03:59:35;;;;;;;4.28;1.60;;;;;;;;;;5036560;28;20481;-84
2023/10/30 04:02:01;;;;;;;11.00;2.30;;;;;;;;;;5011482;28;20194;-84
2023/10/30 04:04:27;;;;;;;11.15;2.05;;;;;;;;;;5046292;28;20182;-85
2023/10/30 04:06:53;;;;;;;3.87;1.30;;;;;;;;;;5035088;28;20588;-85
2023/10/30 04:09:19;;;;;;;5.40;1.63;;;;;;;;;;5034749;28;20444;-84
2023/10/30 04:11:46;;;;;;;4.10;1.40;;;;;;;;;;5035088;28;20550;-85
2023/10/30 04:14:12;;;;;;;8.30;2.00;;;;;;;;;;5035825;28;20172;-85
2023/10/30 04:16:38;;;;;;;7.67;2.10;;;;;;;;;;5034955;28;20166;-84
2023/10/30 04:19:04;;;;;;;5.33;1.67;;;;;;;;;;5034785;28;20413;-84
2023/10/30 04:21:30;;;;;;;5.75;1.92;;;;;;;;;;5035782;28;20549;-84
2023/10/30 04:23:57;;;;;;;10.17;1.83;;;;;;;;;;5035013;28;20186;-85
2023/10/30 04:26:23;;;;;;;5.35;1.55;;;;;;;;;;5034374;28;20956;-84
2023/10/30 04:28:49;;;;;;;8.27;2.00;;;;;;;;;;5034797;28;20217;-85
2023/10/30 04:31:15;;;;;;;6.78;1.42;;;;;;;;;;5034104;28;20421;-85
2023/10/30 04:33:41;;;;;;;4.47;1.48;;;;;;;;;;5017803;28;20182;-85
2023/10/30 04:36:07;;;;;;;8.30;2.20;;;;;;;;;;5035781;28;20260;-84
2023/10/30 04:38:34;;;;;;;4.10;1.48;;;;;;;;;;5035616;28;20178;-84
2023/10/30 04:41:04;;;;;;;7.35;1.75;;;;;;;;;;5035235;28;20170;-85
2023/10/30 04:43:31;;;;;;;5.38;1.80;;;;;;;;;;5034417;28;20185;-84
2023/10/30 04:45:57;;;;;;;5.50;2.10;;;;;;;;;;5035127;28;20200;-84
2023/10/30 04:48:23;;;;;;;5.07;1.80;;;;;;;;;;5017500;28;20191;-85
2023/10/30 04:50:49;;;;;;;11.40;2.00;;;;;;;;;;5035318;28;20509;-85
2023/10/30 04:53:15;;;;;;;5.93;2.80;;;;;;;;;;5017488;28;20432;-84
2023/10/30 04:55:41;;;;;;;10.57;2.50;;;;;;;;;;5035140;28;20479;-83
2023/10/30 04:58:07;;;;;;;7.20;2.10;;;;;;;;;;5019125;28;20444;-85
2023/10/30 05:00:35;;;;;;;11.93;2.95;;;;;;;;;;5035326;28;20559;-85
2023/10/30 05:03:01;;;;;;;8.50;1.63;;;;;;;;;;5043683;28;20181;-85
2023/10/30 05:05:27;;;;;;;11.05;2.00;;;;;;;;;;5036169;28;20636;-84
2023/10/30 05:07:53;;;;;;;5.93;2.40;;;;;;;;;;5035378;28;20236;-84
2023/10/30 05:10:19;;;;;;;4.87;2.00;;;;;;;;;;5017032;28;20909;-84
2023/10/30 05:12:45;;;;;;;10.90;2.40;;;;;;;;;;5033851;28;20480;-84
2023/10/30 05:15:11;;;;;;;9.23;2.17;;;;;;;;;;5033647;28;20419;-85
2023/10/30 05:17:38;;;;;;;6.03;1.80;;;;;;;;;;5034914;28;20398;-85
2023/10/30 05:20:04;;;;;;;7.10;1.98;;;;;;;;;;5045533;28;20408;-85
2023/10/30 05:22:32;;;;;;;4.57;2.00;;;;;;;;;;5025998;28;20654;-85
2023/10/30 05:24:58;;;;;;;3.13;1.52;;;;;;;;;;5033705;28;20206;-85
2023/10/30 05:27:27;;;;;;;6.40;2.00;;;;;;;;;;5033684;28;20194;-85
2023/10/30 05:29:53;;;;;;;6.55;2.25;;;;;;;;;;5017318;28;20416;-85
2023/10/30 05:32:19;;;;;;;12.10;3.40;;;;;;;;;;5033796;28;20182;-85
2023/10/30 05:34:46;;;;;;;7.83;1.97;;;;;;;;;;5033405;28;20410;-83
2023/10/30 05:37:12;;;;;;;6.47;2.30;;;;;;;;;;5033171;28;20405;-84
2023/10/30 05:39:38;;;;;;;8.93;2.47;;;;;;;;;;5033307;28;20193;-85
2023/10/30 05:42:05;;;;;;;9.27;2.33;;;;;;;;;;5034493;28;20480;-84
2023/10/30 05:44:31;;;;;;;6.38;1.75;;;;;;;;;;5032944;28;20210;-85
2023/10/30 05:46:58;;;;;;;5.60;2.50;;;;;;;;;;5034766;28;20171;-85
2023/10/30 05:49:25;;;;;;;5.75;1.95;;;;;;;;;;5032621;28;20197;-85
2023/10/30 05:51:51;;;;;;;7.18;2.33;;;;;;;;;;5036481;28;20189;-85
2023/10/30 05:54:17;;;;;;;7.95;2.50;;;;;;;;;;5033560;28;20239;-84
2023/10/30 05:56:43;;;;;;;5.47;2.17;;;;;;;;;;5029567;28;20194;-85
2023/10/30 05:59:09;;;;;;;20.40;2.83;;;;;;;;;;5041557;28;20413;-83
2023/10/30 06:01:35;;;;;;;5.57;2.10;;;;;;;;;;5032977;28;20244;-84
2023/10/30 06:04:02;;;;;;;7.47;1.83;;;;;;;;;;5033222;28;20412;-83
2023/10/30 06:06:28;;;;;;;5.15;2.80;;;;;;;;;;5033761;28;20471;-84
2023/10/30 06:08:54;;;;;;;6.18;2.10;;;;;;;;;;5032971;28;20182;-83
2023/10/30 06:11:20;;;;;;;10.82;2.03;;;;;;;;;;5040591;28;20189;-83
2023/10/30 06:13:46;;;;;;;7.57;2.17;;;;;;;;;;5046918;28;20187;-84
2023/10/30 06:16:18;;;;;;;8.03;2.90;;;;;;;;;;5033022;28;20425;-84
2023/10/30 06:18:44;;;;;;;11.55;2.97;;;;;;;;;;5020722;28;20425;-84
2023/10/30 06:21:14;;;;;;;7.63;2.17;;;;;;;;;;5020423;28;20666;-84
2023/10/30 06:23:40;;;;;;;7.88;3.05;;;;;;;;;;5037114;28;20436;-84
2023/10/30 06:26:12;;;;;;;6.60;2.30;;;;;;;;;;5036689;28;20225;-84
2023/10/30 06:28:39;;;;;;;9.25;3.10;;;;;;;;;;5042594;28;20826;-84
2023/10/30 06:31:12;;;;;;;9.35;2.70;;;;;;;;;;5058104;28;20181;-84
2023/10/30 06:33:38;;;;;;;5.97;2.33;;;;;;;;;;5057265;28;20189;-84
2023/10/30 06:36:05;;;;;;;6.33;2.63;;;;;;;;;;5058029;28;20551;-84
2023/10/30 06:38:31;;;;;;;11.25;2.72;;;;;;;;;;5039951;28;20420;-84
2023/10/30 06:40:57;;;;;;;8.20;2.50;;;;;;;;;;5040248;28;20182;-84
2023/10/30 06:43:23;;;;;;;6.07;2.27;;;;;;;;;;5057405;28;20173;-82
2023/10/30 06:45:49;;;;;;;8.23;2.73;;;;;;;;;;5056504;28;20464;-82
2023/10/30 06:48:15;;;;;;;6.20;2.20;;;;;;;;;;5040226;28;20927;-82
2023/10/30 06:50:41;;;;;;;5.50;2.70;;;;;;;;;;5041254;28;20567;-83
2023/10/30 06:53:07;;;;;;;4.63;2.17;;;;;;;;;;5039037;28;20428;-83
2023/10/30 06:55:36;;;;;;;8.23;2.30;;;;;;;;;;5056685;28;20411;-83
2023/10/30 06:58:02;;;;;;;9.27;2.30;;;;;;;;;;5056066;28;20419;-83
2023/10/30 07:00:29;;;;;;;7.97;2.67;;;;;;;;;;5043960;28;20222;-83
2023/10/30 07:02:54;;;;;;;3.97;2.47;;;;;;;;;;5019687;28;20417;-83
2023/10/30 07:05:21;;;;;;;7.00;2.00;;;;;;;;;;5035860;28;20221;-83
2023/10/30 07:07:46;;;;;;;9.43;2.63;;;;;;;;;;5035717;28;20499;-83
2023/10/30 07:10:12;;;;;;;8.70;2.60;;;;;;;;;;5037211;28;20202;-82
2023/10/30 07:12:38;;;;;;;8.93;3.00;;;;;;;;;;5037528;28;20409;-83
2023/10/30 07:15:05;;;;;;;9.93;3.67;;;;;;;;;;5037862;28;20413;-83
2023/10/30 07:17:31;;;;;;;6.15;2.45;;;;;;;;;;5019711;28;20409;-82
2023/10/30 07:19:57;;;;;;;6.32;3.03;;;;;;;;;;5019998;28;20193;-83
2023/10/30 07:22:23;;;;;;;5.78;2.60;;;;;;;;;;5054933;28;20650;-82
2023/10/30 07:24:49;;;;;;;12.68;3.03;;;;;;;;;;5039361;28;20225;-83
2023/10/30 07:27:16;;;;;;;11.35;3.05;;;;;;;;;;5055376;28;20209;-83
2023/10/30 07:29:42;;;;;;;10.88;3.28;;;;;;;;;;5055621;28;20200;-83
2023/10/30 07:32:08;;;;;;;9.30;2.60;;;;;;;;;;5055735;28;20181;-83
2023/10/30 07:34:34;;;;;;;8.45;2.63;;;;;;;;;;5055593;28;20434;-83
2023/10/30 07:37:00;;;;;;;5.30;2.67;;;;;;;;;;5056847;28;20265;-83
2023/10/30 07:39:26;;;;;;;13.13;2.92;;;;;;;;;;5055389;28;20422;-83
2023/10/30 07:41:52;;;;;;;8.23;2.20;;;;;;;;;;5038637;28;20653;-83
2023/10/30 07:44:18;;;;;;;7.90;2.60;;;;;;;;;;5055245;28;20423;-83
2023/10/30 07:46:44;;;;;;;4.23;2.77;;;;;;;;;;5055370;28;20458;-83
2023/10/30 07:49:10;;;;;;;6.90;2.37;;;;;;;;;;5055352;28;20411;-83
2023/10/30 07:51:36;;;;;;;10.23;2.80;;;;;;;;;;5056306;28;20509;-83
2023/10/30 07:54:02;;;;;;;10.67;2.40;;;;;;;;;;5055226;28;20418;-84
2023/10/30 07:56:28;;;;;;;6.03;2.67;;;;;;;;;;5054558;28;20462;-83
2023/10/30 07:58:54;;;;;;;4.95;2.28;;;;;;;;;;5054836;28;20174;-82
2023/10/30 08:01:21;;;;;;;10.30;2.75;;;;;;;;;;5055438;28;20303;-82
2023/10/30 08:03:47;;;;;;;6.28;2.22;;;;;;;;;;5038432;28;20227;-82
2023/10/30 08:06:13;;;;;;;5.47;2.63;;;;;;;;;;5054722;28;20209;-82
2023/10/30 08:08:39;;;;;;;8.20;2.50;;;;;;;;;;5055859;28;20400;-82
2023/10/30 08:11:05;;;;;;;7.93;2.30;;;;;;;;;;5054732;28;20416;-82
2023/10/30 08:13:31;;;;;;;6.60;2.10;;;;;;;;;;5054380;28;20190;-81
2023/10/30 08:15:57;;;;;;;4.80;2.03;;;;;;;;;;5055797;28;20408;-81
2023/10/30 08:18:25;;;;;;;5.63;2.20;;;;;;;;;;5055187;28;20204;-83
2023/10/30 08:20:51;;;;;;;5.23;2.00;;;;;;;;;;5053876;28;20420;-82
2023/10/30 08:23:17;;;;;;;8.53;1.93;;;;;;;;;;5037416;28;20477;-81
2023/10/30 08:25:43;;;;;;;7.40;2.00;;;;;;;;;;5047367;28;20834;-83
2023/10/30 08:28:09;;;;;;;8.63;2.73;;;;;;;;;;5034185;28;20424;-82
2023/10/30 08:30:35;;;;;;;5.10;2.27;;;;;;;;;;5044053;28;20499;-83
2023/10/30 08:33:04;;;;;;;9.60;2.17;;;;;;;;;;5039824;28;20984;-83
2023/10/30 08:35:32;;;;;;;4.50;2.00;;;;;;;;;;5033735;28;20917;-83
2023/10/30 08:37:58;;;;;;;3.83;1.17;;;;;;;;;;5034025;28;20460;-83
2023/10/30 08:40:24;;;;;;;2.90;1.03;;;;;;;;;;5032921;28;20938;-83
2023/10/30 08:42:50;;;;;;;4.00;1.50;;;;;;;;;;5034341;28;20405;-80
2023/10/30 08:45:16;;;;;;;2.17;1.20;;;;;;;;;;5050157;28;20467;-84
2023/10/30 08:47:43;;;;;;;3.93;1.17;;;;;;;;;;5042332;28;20496;-83
2023/10/30 08:50:09;;;;;;;3.83;1.33;;;;;;;;;;5033407;28;20769;-83
2023/10/30 08:52:35;;;;;;;6.10;1.60;;;;;;;;;;5034709;28;20427;-83
2023/10/30 08:55:01;;;;;;;7.50;1.30;;;;;;;;;;5033496;28;20815;-83
2023/10/30 08:57:27;;;;;;;3.20;1.10;;;;;;;;;;5027428;28;20932;-82
2023/10/30 08:59:53;;;;;;;2.23;1.00;;;;;;;;;;5054542;28;20475;-83
2023/10/30 09:02:19;;;;;;;3.17;1.00;;;;;;;;;;5054258;28;20423;-81
2023/10/30 09:04:45;;;;;;;2.47;1.10;;;;;;;;;;5036615;28;20983;-84
2023/10/30 09:07:12;;;;;;;5.20;1.67;;;;;;;;;;5036915;28;20409;-83
2023/10/30 09:09:38;;;;;;;2.37;1.03;;;;;;;;;;5054297;28;20798;-83
2023/10/30 09:12:04;;;;;;;1.43;1.17;;;;;;;;;;5054331;28;20407;-83
2023/10/30 09:14:30;;;;;;;5.00;1.57;;;;;;;;;;5054097;28;20408;-83
2023/10/30 09:16:56;;;;;;;2.07;0.80;;;;;;;;;;5053379;28;20965;-83
2023/10/30 09:19:22;;;;;;;1.50;1.10;;;;;;;;;;5053292;28;20491;-83
2023/10/30 09:21:48;;;;;;;1.60;1.10;;;;;;;;;;5054181;28;20416;-83
2023/10/30 09:24:15;;;;;;;2.47;1.40;;;;;;;;;;5053832;28;20856;-84
2023/10/30 09:26:40;;;;;;;2.70;1.10;;;;;;;;;;5053977;28;20863;-83
2023/10/30 09:29:06;;;;;;;3.23;0.93;;;;;;;;;;5053172;28;20401;-84
2023/10/30 09:31:33;;;;;;;1.13;0.80;;;;;;;;;;5054013;28;20880;-82
2023/10/30 09:33:59;;;;;;;4.70;1.27;;;;;;;;;;5054140;28;20438;-84
2023/10/30 09:36:25;;;;;;;6.27;1.40;;;;;;;;;;5052747;28;20427;-84
2023/10/30 09:38:55;;;;;;;3.50;0.83;;;;;;;;;;5036134;28;20481;-83
2023/10/30 09:41:21;;;;;;;2.30;0.87;;;;;;;;;;5039627;28;20436;-84
2023/10/30 09:43:49;;;;;;;1.97;0.80;;;;;;;;;;5045777;28;20423;-83
2023/10/30 09:46:16;;;;;;;1.43;0.80;;;;;;;;;;5035665;28;20972;-84
2023/10/30 09:48:43;;;;;;;1.30;0.70;;;;;;;;;;5032468;28;20428;-84
2023/10/30 09:51:10;;;;;;;1.73;0.60;;;;;;;;;;5032644;28;20504;-83
2023/10/30 09:53:37;;;;;;;1.67;0.70;;;;;;;;;;5032697;28;20437;-83
2023/10/30 09:56:04;;;;;;;1.00;0.67;;;;;;;;;;5034000;28;20413;-84
2023/10/30 09:58:31;;;;;;;2.03;1.00;;;;;;;;;;5032262;28;20427;-84
2023/10/30 10:00:57;;;;;;;4.20;0.80;;;;;;;;;;5035427;28;20506;-84
2023/10/30 10:03:23;;;;;;;2.57;0.80;;;;;;;;;;5052630;28;20739;-83
2023/10/30 10:05:56;;;;;;;2.10;0.90;;;;;;;;;;5050703;28;20472;-83
2023/10/30 10:08:23;;;;;;;1.33;0.80;;;;;;;;;;5033912;28;20413;-84
2023/10/30 10:11:02;;;;;;;2.60;0.73;;;;;;;;;;5034015;28;20966;-83
2023/10/30 10:13:29;;;;;;;2.07;1.00;;;;;;;;;;5033686;28;20401;-84
2023/10/30 10:15:56;;;;;;;2.03;0.70;;;;;;;;;;5032605;28;20429;-84
2023/10/30 10:18:32;;;;;;;2.80;0.93;;;;;;;;;;5033932;28;20409;-85
2023/10/30 10:20:59;;;;;;;1.00;0.70;;;;;;;;;;5042525;28;20424;-85
2023/10/30 10:23:26;;;;;;;3.03;0.80;;;;;;;;;;5053779;28;20930;-84
2023/10/30 10:25:56;;;;;;;1.53;0.90;;;;;;;;;;5053719;28;20463;-85
2023/10/30 10:28:25;;;;;;;2.10;1.00;;;;;;;;;;5052471;28;20412;-86
2023/10/30 10:30:53;;;;;;;1.40;1.03;;;;;;;;;;5053918;28;20411;-85
2023/10/30 10:33:20;;;;;;;2.70;0.80;;;;;;;;;;5053916;28;20884;-85
2023/10/30 10:35:47;;;;;;;1.57;0.90;;;;;;;;;;5052241;28;20416;-82
2023/10/30 10:38:16;;;;;;;3.13;1.57;;;;;;;;;;5053827;28;20818;-85
2023/10/30 10:40:44;;;;;;;2.90;1.10;;;;;;;;;;5052007;28;20462;-85
2023/10/30 10:43:10;;;;;;;1.07;0.80;;;;;;;;;;5033418;28;20401;-85
2023/10/30 10:45:37;;;;;;;3.43;0.80;;;;;;;;;;5049853;28;20521;-85
2023/10/30 10:48:05;;;;;;;3.07;0.80;;;;;;;;;;5053697;28;20407;-85
2023/10/30 10:50:34;;;;;;;2.63;0.80;;;;;;;;;;5053041;28;20408;-85
2023/10/30 10:53:01;;;;;;;5.73;1.00;;;;;;;;;;5053604;28;20498;-85
2023/10/30 10:55:29;;;;;;;1.00;0.90;;;;;;;;;;5047802;28;20416;-84
2023/10/30 10:58:12;;;;;;;1.60;0.70;;;;;;;;;;5032117;28;20920;-85
2023/10/30 11:00:44;;;;;;;1.17;0.90;;;;;;;;;;5031590;28;20555;-85
2023/10/30 11:03:11;;;;;;;1.10;0.87;;;;;;;;;;5034758;28;20381;-83
2023/10/30 11:05:37;;;;;;;4.00;0.90;;;;;;;;;;5035113;28;20468;-84
2023/10/30 11:08:19;;;;;;;1.97;0.87;;;;;;;;;;5035156;28;20508;-85
2023/10/30 11:10:51;;;;;;;0.90;0.70;;;;;;;;;;5043586;28;20506;-84
2023/10/30 11:13:26;;;;;;;3.93;0.90;;;;;;;;;;5055959;28;20423;-85
2023/10/30 11:16:00;;;;;;;1.60;1.00;;;;;;;;;;5055229;28;20511;-85
2023/10/30 11:18:27;;;;;;;2.33;0.90;;;;;;;;;;5055601;28;20465;-85
2023/10/30 11:21:15;;;;;;;1.20;1.00;;;;;;;;;;5055086;28;20412;-84
2023/10/30 11:23:52;;;;;;;1.57;0.90;;;;;;;;;;5055916;28;20490;-84
2023/10/30 11:26:37;;;;;;;3.10;0.87;;;;;;;;;;5056320;28;20452;-84
2023/10/30 11:29:06;;;;;;;1.10;0.83;;;;;;;;;;5055360;28;20404;-85
2023/10/30 11:31:49;;;;;;;1.20;0.80;;;;;;;;;;5055970;28;20454;-84
2023/10/30 11:34:18;;;;;;;1.57;0.80;;;;;;;;;;5056007;28;20763;-84
2023/10/30 11:36:47;;;;;;;1.00;0.77;;;;;;;;;;5055778;28;20400;-84
2023/10/30 11:39:20;;;;;;;1.70;0.90;;;;;;;;;;5054873;28;20470;-84
2023/10/30 11:41:49;;;;;;;4.87;1.27;;;;;;;;;;5035745;28;20813;-84
2023/10/30 11:44:17;;;;;;;2.70;0.77;;;;;;;;;;5034846;28;20413;-84
2023/10/30 11:46:49;;;;;;;0.87;0.70;;;;;;;;;;5034382;28;20468;-83
2023/10/30 11:49:15;;;;;;;1.23;0.80;;;;;;;;;;5036076;28;20389;-84
2023/10/30 11:51:45;;;;;;;1.10;0.70;;;;;;;;;;5035632;28;20493;-84
2023/10/30 11:54:11;;;;;;;2.30;0.70;;;;;;;;;;5035799;28;20512;-84
2023/10/30 11:56:47;;;;;;;0.80;0.63;;;;;;;;;;5036017;28;20743;-84
2023/10/30 11:59:12;;;;;;;0.93;0.70;;;;;;;;;;5035909;28;20424;-83
2023/10/30 12:01:39;;;;;;;0.90;0.70;;;;;;;;;;5033754;28;20503;-84
2023/10/30 12:04:05;;;;;;;1.27;0.80;;;;;;;;;;5034547;28;20859;-83
2023/10/30 12:06:31;;;;;;;0.90;0.70;;;;;;;;;;5035589;28;20559;-83
2023/10/30 12:08:57;;;;;;;0.70;0.50;;;;;;;;;;5034557;28;20827;-85
2023/10/30 12:11:23;;;;;;;1.00;0.70;;;;;;;;;;5034457;28;20421;-84
2023/10/30 12:13:50;;;;;;;0.60;0.50;;;;;;;;;;5033597;28;20509;-82
2023/10/30 12:16:16;;;;;;;0.87;0.60;;;;;;;;;;5033646;28;20808;-82
2023/10/30 12:18:42;;;;;;;0.90;0.60;;;;;;;;;;5033703;28;20424;-84
2023/10/30 12:21:09;;;;;;;1.93;0.80;;;;;;;;;;5035419;28;20873;-84
2023/10/30 12:23:44;;;;;;;1.23;0.80;;;;;;;;;;5033535;28;20429;-84
2023/10/30 12:26:10;;;;;;;1.43;0.73;;;;;;;;;;5033940;28;20824;-84
2023/10/30 12:28:37;;;;;;;1.00;0.80;;;;;;;;;;5033605;28;20552;-84
2023/10/30 12:31:15;;;;;;;2.70;0.87;;;;;;;;;;5033978;28;20420;-83
2023/10/30 12:33:41;;;;;;;1.00;0.60;;;;;;;;;;5035034;28;20485;-84
2023/10/30 12:36:07;;;;;;;0.73;0.50;;;;;;;;;;5035445;28;20419;-85
2023/10/30 12:38:34;;;;;;;4.40;2.07;;;;;;;;;;5033491;28;20420;-83
2023/10/30 12:41:06;;;;;;;2.47;1.07;;;;;;;;;;5034865;28;20409;-83
2023/10/30 12:43:34;;;;;;;1.73;1.20;;;;;;;;;;5034826;28;20441;-84
2023/10/30 12:46:00;;;;;;;1.37;1.10;;;;;;;;;;5033127;28;20435;-85
2023/10/30 12:48:26;;;;;;;1.37;0.87;;;;;;;;;;5033418;28;20527;-85
2023/10/30 12:50:51;;;;;;;2.03;1.10;;;;;;;;;;5033104;28;20448;-85
2023/10/30 12:53:17;;;;;;;1.37;1.00;;;;;;;;;;5016843;28;20411;-84
2023/10/30 12:55:43;;;;;;;1.30;1.00;;;;;;;;;;5033595;28;20885;-84
2023/10/30 12:58:09;;;;;;;3.93;1.20;;;;;;;;;;5002603;28;20509;-85
2023/10/30 13:00:35;;;;;;;1.00;0.90;;;;;;;;;;5029987;28;20443;-84
2023/10/30 13:03:01;;;;;;;2.80;0.93;;;;;;;;;;5030821;28;20392;-85
2023/10/30 13:05:27;;;;;;;1.50;1.10;;;;;;;;;;5029553;28;20465;-85
2023/10/30 13:07:53;;;;;;;0.80;0.70;;;;;;;;;;5029734;28;20811;-85
2023/10/30 13:10:19;;;;;;;1.00;0.73;;;;;;;;;;5029975;28;20441;-85
2023/10/30 13:12:45;;;;;;;3.57;0.83;;;;;;;;;;5014158;28;20886;-84
2023/10/30 13:15:11;;;;;;;1.13;0.70;;;;;;;;;;5029657;28;20420;-85
2023/10/30 13:17:37;;;;;;;1.80;1.20;;;;;;;;;;5014627;28;20406;-84
2023/10/30 13:20:06;;;;;;;1.27;1.00;;;;;;;;;;5030024;28;20410;-85
2023/10/30 13:22:32;;;;;;;2.80;0.93;;;;;;;;;;5029573;28;20955;-85
2023/10/30 13:24:59;;;;;;;1.53;1.00;;;;;;;;;;5029415;28;20807;-84
2023/10/30 13:27:26;;;;;;;2.10;1.60;;;;;;;;;;5029591;28;20946;-85
2023/10/30 13:29:52;;;;;;;1.73;1.27;;;;;;;;;;5049664;28;20462;-83
2023/10/30 13:32:18;;;;;;;1.77;1.10;;;;;;;;;;5023412;28;20421;-84
2023/10/30 13:34:44;;;;;;;2.40;1.37;;;;;;;;;;5043370;28;20787;-85
2023/10/30 13:37:10;;;;;;;4.73;1.00;;;;;;;;;;5052682;28;20415;-85
2023/10/30 13:39:36;;;;;;;1.57;1.30;;;;;;;;;;5041458;28;20459;-84
2023/10/30 13:42:02;;;;;;;2.03;1.20;;;;;;;;;;5032761;28;20384;-85
2023/10/30 13:44:28;;;;;;;3.10;1.00;;;;;;;;;;5032721;28;20874;-85
2023/10/30 13:46:54;;;;;;;4.30;1.00;;;;;;;;;;5033437;28;20483;-85
2023/10/30 13:49:21;;;;;;;2.40;1.47;;;;;;;;;;5034019;28;20412;-84
2023/10/30 13:51:46;;;;;;;4.00;1.00;;;;;;;;;;5016014;28;20512;-85
2023/10/30 13:54:13;;;;;;;3.43;1.30;;;;;;;;;;5033031;28;20468;-85
2023/10/30 13:56:39;;;;;;;2.33;1.03;;;;;;;;;;5032669;28;20767;-84
2023/10/30 13:59:05;;;;;;;5.37;1.00;;;;;;;;;;5041162;28;20451;-85
2023/10/30 14:01:31;;;;;;;1.83;0.90;;;;;;;;;;5051829;28;20499;-85
2023/10/30 14:03:57;;;;;;;2.03;1.10;;;;;;;;;;5033547;28;20474;-85
2023/10/30 14:06:23;;;;;;;2.37;1.30;;;;;;;;;;5032399;28;20868;-85
2023/10/30 14:08:49;;;;;;;2.43;1.33;;;;;;;;;;5032195;28;20421;-85
2023/10/30 14:11:15;;;;;;;3.07;0.80;;;;;;;;;;5032548;28;20455;-85
2023/10/30 14:13:41;;;;;;;1.57;1.00;;;;;;;;;;5015760;28;20424;-84
2023/10/30 14:16:07;;;;;;;0.93;0.80;;;;;;;;;;5016402;28;20425;-85
2023/10/30 14:18:33;;;;;;;1.30;1.20;;;;;;;;;;5051663;28;20428;-85
2023/10/30 14:20:59;;;;;;;1.83;1.23;;;;;;;;;;5051994;28;20438;-84
2023/10/30 14:23:25;;;;;;;4.33;1.07;;;;;;;;;;5051988;28;20420;-85
2023/10/30 14:25:51;;;;;;;2.20;1.00;;;;;;;;;;5052111;28;20951;-85
2023/10/30 14:28:17;;;;;;;2.33;1.07;;;;;;;;;;5053386;28;20423;-86
2023/10/30 14:30:43;;;;;;;1.17;0.87;;;;;;;;;;5051752;28;20424;-85
2023/10/30 14:33:11;;;;;;;1.77;1.20;;;;;;;;;;5037542;28;20419;-85
2023/10/30 14:35:37;;;;;;;1.50;1.00;;;;;;;;;;5015989;28;20451;-86
2023/10/30 14:38:04;;;;;;;1.73;0.83;;;;;;;;;;5016855;28;20424;-85